createdAt,value
2019-03-21T00:00:29.243Z,47.40
2019-03-21T00:03:00.995Z,47.30
2019-03-21T00:05:32.497Z,47.30
2019-03-21T00:08:02.993Z,47.40
2019-03-21T00:10:36.408Z,47.40
2019-03-21T00:13:06.682Z,47.40
2019-03-21T00:15:45.800Z,47.40
2019-03-21T00:18:18.175Z,47.30
2019-03-21T00:20:48.443Z,47.40
2019-03-21T00:23:18.706Z,47.50
2019-03-21T00:25:48.889Z,47.50
2019-03-21T00:28:19.076Z,47.50
2019-03-21T00:30:49.286Z,47.50
2019-03-21T00:33:19.495Z,47.60
2019-03-21T00:35:49.765Z,47.70
2019-03-21T00:38:20.021Z,48.00
2019-03-21T00:40:50.220Z,48.40
2019-03-21T00:43:20.416Z,48.70
2019-03-21T00:45:50.652Z,48.90
2019-03-21T00:48:21.093Z,49.00
2019-03-21T00:50:51.348Z,49.40
2019-03-21T00:53:21.585Z,49.50
2019-03-21T00:55:56.067Z,49.70
2019-03-21T00:58:27.852Z,50.10
2019-03-21T01:01:07.187Z,51.60
2019-03-21T01:03:38.444Z,50.90
2019-03-21T01:06:08.640Z,50.70
2019-03-21T01:08:38.912Z,50.50
2019-03-21T01:11:09.184Z,50.70
2019-03-21T01:13:40.792Z,50.90
2019-03-21T01:16:11.052Z,51.10
2019-03-21T01:18:43.985Z,51.30
2019-03-21T01:21:14.188Z,52.10
2019-03-21T01:23:44.505Z,51.50
2019-03-21T01:26:16.776Z,51.70
2019-03-21T01:28:47.115Z,51.80
2019-03-21T01:31:17.340Z,51.70
2019-03-21T01:33:47.575Z,51.60
2019-03-21T01:36:19.269Z,51.50
2019-03-21T01:38:49.481Z,51.60
2019-03-21T01:41:20.164Z,51.70
2019-03-21T01:43:50.360Z,51.30
2019-03-21T01:46:22.805Z,51.30
2019-03-21T01:48:53.058Z,51.60
2019-03-21T01:51:23.256Z,51.60
2019-03-21T01:53:54.937Z,51.70
2019-03-21T01:56:26.561Z,51.70
2019-03-21T01:58:56.736Z,51.80
2019-03-21T02:01:26.920Z,51.70
2019-03-21T02:03:57.202Z,51.90
2019-03-21T02:06:27.392Z,52.00
2019-03-21T02:08:59.155Z,52.40
2019-03-21T02:11:29.369Z,52.30
2019-03-21T02:13:59.565Z,52.40
2019-03-21T02:16:29.860Z,52.50
2019-03-21T02:19:00.088Z,52.60
2019-03-21T02:21:30.363Z,52.50
2019-03-21T02:24:00.692Z,52.00
2019-03-21T02:26:30.963Z,51.60
2019-03-21T02:29:01.184Z,51.30
2019-03-21T02:31:31.448Z,51.00
2019-03-21T02:34:01.731Z,50.90
2019-03-21T02:36:32.177Z,50.70
2019-03-21T02:39:02.380Z,50.60
2019-03-21T02:41:32.583Z,50.90
2019-03-21T02:44:02.854Z,51.00
2019-03-21T02:46:33.133Z,51.40
2019-03-21T02:49:04.886Z,51.60
2019-03-21T02:51:36.782Z,51.40
2019-03-21T02:54:06.976Z,51.40
2019-03-21T02:56:37.184Z,52.10
2019-03-21T02:59:07.406Z,51.30
2019-03-21T03:01:37.665Z,51.20
2019-03-21T03:04:08.162Z,51.10
2019-03-21T03:06:39.906Z,50.90
2019-03-21T03:09:10.113Z,50.80
2019-03-21T03:11:40.282Z,50.60
2019-03-21T03:14:10.508Z,50.50
2019-03-21T03:16:40.779Z,50.40
2019-03-21T03:19:10.969Z,50.20
2019-03-21T03:21:41.220Z,50.00
2019-03-21T03:24:11.784Z,49.90
2019-03-21T03:26:41.964Z,49.90
2019-03-21T03:29:12.131Z,49.80
2019-03-21T03:31:42.349Z,49.90
2019-03-21T03:34:12.629Z,50.00
2019-03-21T03:36:42.969Z,49.70
2019-03-21T03:39:13.199Z,49.70
2019-03-21T03:41:43.442Z,49.70
2019-03-21T03:44:13.734Z,49.80
2019-03-21T03:46:43.941Z,49.70
2019-03-21T03:49:14.117Z,49.80
2019-03-21T03:51:44.337Z,49.80
2019-03-21T03:54:14.543Z,49.80
2019-03-21T03:56:44.760Z,49.90
2019-03-21T03:59:15.080Z,49.90
2019-03-21T04:01:45.273Z,50.00
2019-03-21T04:04:15.460Z,50.00
2019-03-21T04:06:45.676Z,50.00
2019-03-21T04:09:15.860Z,49.90
2019-03-21T04:11:46.084Z,49.90
2019-03-21T04:14:16.365Z,50.00
2019-03-21T04:16:46.601Z,49.90
2019-03-21T04:19:16.883Z,50.00
2019-03-21T04:21:47.143Z,50.20
2019-03-21T04:24:18.014Z,50.40
2019-03-21T04:26:48.200Z,50.60
2019-03-21T04:29:18.409Z,50.90
2019-03-21T04:31:48.627Z,51.00
2019-03-21T04:34:18.833Z,51.30
2019-03-21T04:36:49.058Z,51.50
2019-03-21T04:39:19.337Z,51.60
2019-03-21T04:41:49.796Z,51.80
2019-03-21T04:44:20.051Z,51.50
2019-03-21T04:46:50.240Z,51.50
2019-03-21T04:49:23.571Z,51.70
2019-03-21T04:51:53.846Z,51.60
2019-03-21T04:54:24.032Z,51.80
2019-03-21T04:56:55.824Z,51.70
2019-03-21T04:59:26.056Z,51.60
2019-03-21T05:01:56.393Z,51.60
2019-03-21T05:04:26.700Z,51.40
2019-03-21T05:06:56.884Z,51.30
2019-03-21T05:09:28.649Z,51.30
2019-03-21T05:11:58.830Z,51.30
2019-03-21T05:14:29.054Z,51.30
2019-03-21T05:16:59.249Z,51.40
2019-03-21T05:19:29.474Z,51.30
2019-03-21T05:21:59.736Z,51.20
2019-03-21T05:24:30.065Z,51.10
2019-03-21T05:27:02.017Z,51.00
2019-03-21T05:29:33.762Z,51.00
2019-03-21T05:32:04.021Z,50.60
2019-03-21T05:34:34.593Z,50.30
2019-03-21T05:37:04.824Z,49.90
2019-03-21T05:39:35.024Z,49.60
2019-03-21T05:42:07.561Z,49.20
2019-03-21T05:44:39.598Z,48.70
2019-03-21T05:47:09.816Z,48.00
2019-03-21T05:49:40.068Z,47.60
2019-03-21T05:52:10.287Z,46.80
2019-03-21T05:54:40.481Z,46.30
2019-03-21T05:57:10.702Z,45.70
2019-03-21T05:59:40.994Z,44.40
2019-03-21T06:02:11.214Z,43.30
2019-03-21T06:04:41.446Z,42.60
2019-03-21T06:07:20.808Z,42.30
2019-03-21T06:09:51.028Z,41.60
2019-03-21T06:12:21.259Z,40.60
2019-03-21T06:15:00.538Z,39.50
2019-03-21T06:17:31.460Z,39.00
2019-03-21T06:20:22.835Z,38.60
2019-03-21T06:23:07.948Z,38.10
2019-03-21T06:25:57.731Z,38.00
2019-03-21T06:28:28.275Z,36.50
2019-03-21T06:30:58.500Z,35.80
2019-03-21T06:33:28.695Z,34.10
2019-03-21T06:35:58.945Z,32.00
2019-03-21T06:38:29.159Z,30.00
2019-03-21T06:40:59.386Z,28.80
2019-03-21T06:43:29.936Z,27.20
2019-03-21T06:46:00.298Z,26.20
2019-03-21T06:48:30.522Z,25.60
2019-03-21T06:51:00.836Z,24.40
2019-03-21T06:53:31.033Z,23.30
2019-03-21T06:56:01.216Z,22.60
2019-03-21T06:58:31.439Z,21.80
2019-03-21T07:01:01.658Z,21.30
2019-03-21T07:03:31.924Z,20.70
2019-03-21T07:06:02.153Z,20.00
2019-03-21T07:08:32.351Z,19.20
2019-03-21T07:11:02.565Z,18.50
2019-03-21T07:13:32.838Z,18.20
2019-03-21T07:16:03.036Z,18.10
2019-03-21T07:18:33.232Z,18.20
2019-03-21T07:21:03.508Z,17.90
2019-03-21T07:23:33.725Z,17.90
2019-03-21T07:26:06.593Z,18.00
2019-03-21T07:28:38.485Z,17.10
2019-03-21T07:31:08.021Z,17.50
2019-03-21T07:33:38.226Z,16.80
2019-03-21T07:36:08.477Z,16.50
2019-03-21T07:38:38.717Z,16.20
2019-03-21T07:41:09.068Z,15.50
2019-03-21T07:43:39.283Z,15.50
2019-03-21T07:46:09.512Z,14.90
2019-03-21T07:48:39.767Z,14.50
2019-03-21T07:51:10.072Z,14.10
2019-03-21T07:53:40.272Z,13.80
2019-03-21T07:56:12.257Z,13.80
2019-03-21T07:58:42.445Z,13.40
2019-03-21T08:01:12.727Z,13.10
2019-03-21T08:03:42.982Z,12.80
2019-03-21T08:06:14.821Z,12.60
2019-03-21T08:08:45.158Z,12.50
2019-03-21T08:11:15.884Z,12.30
2019-03-21T08:13:46.170Z,12.10
2019-03-21T08:16:16.403Z,11.70
2019-03-21T08:18:46.739Z,11.80
2019-03-21T08:21:17.020Z,11.80
2019-03-21T08:23:47.197Z,11.70
2019-03-21T08:26:17.508Z,11.30
2019-03-21T08:28:47.712Z,11.10
2019-03-21T08:31:17.936Z,10.90
2019-03-21T08:33:48.232Z,10.80
2019-03-21T08:36:18.512Z,10.70
2019-03-21T08:38:48.715Z,10.70
2019-03-21T08:41:18.994Z,10.50
2019-03-21T08:43:49.199Z,10.10
2019-03-21T08:46:20.975Z,10.20
2019-03-21T08:48:51.290Z,10.10
2019-03-21T08:51:21.488Z,10.10
2019-03-21T08:53:51.744Z,10.00
2019-03-21T08:56:21.967Z,9.90
2019-03-21T08:58:52.149Z,9.80
2019-03-21T09:01:22.401Z,9.80
2019-03-21T09:03:52.586Z,9.60
2019-03-21T09:06:22.786Z,9.50
2019-03-21T09:08:53.009Z,9.80
2019-03-21T09:11:24.804Z,10.20
2019-03-21T09:13:55.093Z,10.50
2019-03-21T09:16:25.350Z,10.60
2019-03-21T09:18:55.652Z,10.60
2019-03-21T09:21:25.902Z,10.70
2019-03-21T09:23:56.896Z,10.90
2019-03-21T09:26:27.147Z,11.50
2019-03-21T09:28:57.384Z,11.20
2019-03-21T09:31:27.620Z,11.10
2019-03-21T09:33:57.841Z,11.10
2019-03-21T09:36:28.076Z,11.10
2019-03-21T09:38:58.281Z,11.30
2019-03-21T09:41:28.486Z,11.90
2019-03-21T09:43:58.831Z,11.50
2019-03-21T09:46:29.035Z,11.70
2019-03-21T09:48:59.385Z,11.90
2019-03-21T09:51:31.163Z,12.50
2019-03-21T09:54:09.821Z,13.30
2019-03-21T09:56:33.547Z,14.50
2019-03-21T09:59:05.341Z,15.50
2019-03-21T10:01:35.629Z,16.40
2019-03-21T10:04:05.864Z,17.40
2019-03-21T10:06:36.056Z,18.50
2019-03-21T10:09:09.051Z,19.50
2019-03-21T10:11:39.256Z,20.30
2019-03-21T10:14:09.463Z,21.10
2019-03-21T10:16:39.774Z,21.50
2019-03-21T10:19:11.545Z,22.20
2019-03-21T10:21:43.468Z,22.80
2019-03-21T10:24:14.490Z,23.40
2019-03-21T10:26:44.458Z,23.50
2019-03-21T10:29:14.707Z,23.30
2019-03-21T10:31:44.994Z,23.40
2019-03-21T10:34:15.290Z,23.60
2019-03-21T10:36:47.088Z,24.00
2019-03-21T10:39:17.344Z,24.40
2019-03-21T10:41:47.559Z,24.60
2019-03-21T10:44:17.844Z,25.40
2019-03-21T10:46:48.096Z,25.00
2019-03-21T10:49:18.391Z,24.90
2019-03-21T10:51:54.910Z,25.00
2019-03-21T10:54:20.644Z,25.20
2019-03-21T10:56:50.930Z,25.40
2019-03-21T10:59:22.701Z,25.30
2019-03-21T11:01:52.887Z,25.30
2019-03-21T11:04:23.220Z,25.20
2019-03-21T11:07:00.228Z,25.20
2019-03-21T11:09:32.005Z,25.40
2019-03-21T11:12:02.289Z,25.60
2019-03-21T11:14:32.554Z,25.80
2019-03-21T11:17:02.997Z,26.00
2019-03-21T11:19:33.254Z,25.80
2019-03-21T11:22:06.548Z,26.10
2019-03-21T11:24:35.386Z,26.20
2019-03-21T11:27:05.645Z,26.40
2019-03-21T11:29:35.965Z,26.60
2019-03-21T11:32:06.318Z,26.70
2019-03-21T11:34:36.520Z,26.80
2019-03-21T11:37:06.742Z,26.70
2019-03-21T11:39:36.919Z,26.80
2019-03-21T11:42:08.752Z,26.80
2019-03-21T11:44:39.045Z,27.10
2019-03-21T11:47:09.225Z,27.30
2019-03-21T11:49:39.514Z,27.60
2019-03-21T11:52:18.119Z,27.90
2019-03-21T11:54:41.708Z,27.90
2019-03-21T11:57:11.940Z,28.00
2019-03-21T11:59:51.516Z,27.80
2019-03-21T12:02:14.215Z,27.90
2019-03-21T12:04:46.017Z,28.00
2019-03-21T12:07:16.312Z,28.10
2019-03-21T12:09:46.644Z,28.00
2019-03-21T12:12:17.039Z,28.00
2019-03-21T12:14:47.221Z,28.10
2019-03-21T12:17:17.419Z,28.20
2019-03-21T12:19:47.623Z,28.20
2019-03-21T12:22:29.492Z,28.40
2019-03-21T12:24:51.407Z,28.50
2019-03-21T12:27:21.678Z,28.50
2019-03-21T12:29:51.872Z,28.40
2019-03-21T12:32:22.106Z,28.50
2019-03-21T12:34:52.371Z,28.70
2019-03-21T12:37:22.567Z,28.80
2019-03-21T12:39:52.788Z,28.70
2019-03-21T12:42:23.004Z,28.80
2019-03-21T12:44:53.247Z,29.00
2019-03-21T12:47:31.203Z,29.10
2019-03-21T12:49:55.482Z,28.90
2019-03-21T12:52:25.756Z,28.90
2019-03-21T12:54:59.000Z,28.90
2019-03-21T12:57:29.288Z,29.00
2019-03-21T12:59:59.508Z,29.00
2019-03-21T13:02:32.212Z,29.10
2019-03-21T13:05:01.789Z,29.30
2019-03-21T13:07:33.540Z,29.40
2019-03-21T13:10:07.083Z,29.40
2019-03-21T13:12:37.271Z,29.60
2019-03-21T13:15:07.901Z,29.70
2019-03-21T13:17:38.151Z,29.80
2019-03-21T13:20:08.456Z,29.80
2019-03-21T13:22:52.360Z,29.90
2019-03-21T13:25:12.886Z,29.80
2019-03-21T13:27:43.221Z,30.00
2019-03-21T13:30:13.816Z,30.00
2019-03-21T13:32:44.029Z,30.00
2019-03-21T13:35:15.895Z,30.00
2019-03-21T13:37:46.150Z,30.00
2019-03-21T13:40:16.407Z,30.20
2019-03-21T13:42:46.627Z,30.40
2019-03-21T13:45:16.824Z,30.30
2019-03-21T13:47:47.123Z,30.20
2019-03-21T13:50:17.320Z,30.30
2019-03-21T13:52:47.532Z,30.40
2019-03-21T13:55:17.770Z,30.40
2019-03-21T13:57:48.060Z,31.00
2019-03-21T14:00:20.535Z,30.50
2019-03-21T14:02:50.809Z,30.60
2019-03-21T14:05:21.171Z,30.70
2019-03-21T14:07:51.365Z,30.50
2019-03-21T14:10:21.598Z,30.60
2019-03-21T14:12:51.872Z,30.30
2019-03-21T14:15:22.214Z,30.70
2019-03-21T14:17:52.567Z,30.70
2019-03-21T14:20:23.642Z,30.70
2019-03-21T14:22:53.842Z,30.70
2019-03-21T14:25:24.072Z,30.70
2019-03-21T14:27:55.835Z,30.70
2019-03-21T14:30:26.159Z,31.30
2019-03-21T14:32:56.390Z,30.60
2019-03-21T14:35:26.601Z,30.70
2019-03-21T14:37:56.829Z,30.80
2019-03-21T14:40:28.588Z,30.90
2019-03-21T14:42:58.907Z,30.70
2019-03-21T14:45:29.091Z,30.80
2019-03-21T14:47:59.376Z,31.00
2019-03-21T14:50:29.613Z,31.00
2019-03-21T14:52:59.810Z,31.00
2019-03-21T14:55:31.166Z,31.00
2019-03-21T14:58:02.518Z,31.10
2019-03-21T15:00:35.101Z,31.50
2019-03-21T15:03:05.312Z,31.40
2019-03-21T15:05:37.106Z,31.30
2019-03-21T15:08:07.321Z,31.20
2019-03-21T15:10:37.621Z,31.30
2019-03-21T15:13:07.815Z,31.20
2019-03-21T15:15:38.053Z,31.30
2019-03-21T15:18:08.269Z,31.20
2019-03-21T15:20:39.311Z,30.90
2019-03-21T15:23:09.511Z,31.10
2019-03-21T15:25:39.816Z,31.00
2019-03-21T15:28:10.177Z,31.00
2019-03-21T15:30:42.550Z,31.10
2019-03-21T15:33:12.817Z,31.70
2019-03-21T15:35:42.993Z,31.20
2019-03-21T15:38:13.201Z,31.30
2019-03-21T15:40:45.047Z,31.30
2019-03-21T15:43:15.329Z,31.30
2019-03-21T15:45:45.709Z,31.20
2019-03-21T15:48:15.936Z,31.20
2019-03-21T15:50:46.117Z,31.20
2019-03-21T15:53:16.380Z,31.20
2019-03-21T15:55:47.672Z,31.30
2019-03-21T15:58:17.921Z,31.50
2019-03-21T16:00:48.117Z,31.50
2019-03-21T16:03:18.341Z,31.40
2019-03-21T16:05:48.631Z,31.60
2019-03-21T16:08:18.897Z,31.80
2019-03-21T16:10:49.120Z,31.70
2019-03-21T16:13:19.341Z,31.60
2019-03-21T16:15:49.577Z,31.60
2019-03-21T16:18:19.889Z,31.70
2019-03-21T16:20:50.505Z,31.90
2019-03-21T16:23:23.172Z,31.90
2019-03-21T16:25:53.545Z,32.10
2019-03-21T16:28:23.767Z,32.10
2019-03-21T16:30:54.786Z,32.20
2019-03-21T16:33:25.070Z,32.30
2019-03-21T16:35:55.244Z,32.50
2019-03-21T16:38:25.495Z,32.60
2019-03-21T16:40:55.848Z,32.60
2019-03-21T16:43:26.059Z,32.70
2019-03-21T16:45:58.897Z,33.00
2019-03-21T16:48:29.121Z,33.10
2019-03-21T16:50:59.425Z,33.20
2019-03-21T16:53:29.984Z,33.40
2019-03-21T16:56:03.303Z,33.40
2019-03-21T16:58:33.877Z,33.50
2019-03-21T17:01:05.363Z,33.60
2019-03-21T17:03:39.731Z,33.70
2019-03-21T17:06:09.939Z,33.90
2019-03-21T17:08:40.224Z,34.20
2019-03-21T17:11:10.557Z,34.30
2019-03-21T17:13:42.725Z,34.50
2019-03-21T17:16:12.986Z,34.70
2019-03-21T17:18:43.312Z,34.80
2019-03-21T17:21:15.257Z,35.10
2019-03-21T17:23:45.504Z,35.40
2019-03-21T17:26:17.365Z,35.50
2019-03-21T17:28:49.183Z,35.80
2019-03-21T17:31:20.944Z,36.20
2019-03-21T17:33:51.173Z,36.30
2019-03-21T17:36:21.468Z,36.60
2019-03-21T17:38:51.784Z,36.80
2019-03-21T17:41:22.055Z,37.00
2019-03-21T17:43:52.335Z,37.20
2019-03-21T17:46:24.108Z,37.30
2019-03-21T17:48:55.920Z,37.40
2019-03-21T17:51:26.098Z,37.50
2019-03-21T17:53:56.331Z,37.50
2019-03-21T17:56:26.633Z,37.50
2019-03-21T17:58:56.907Z,37.50
2019-03-21T18:01:27.117Z,37.70
2019-03-21T18:03:58.998Z,37.70
2019-03-21T18:06:29.177Z,37.70
2019-03-21T18:08:59.527Z,37.80
2019-03-21T18:11:30.126Z,38.00
2019-03-21T18:14:00.418Z,38.10
2019-03-21T18:16:30.776Z,38.20
2019-03-21T18:19:01.798Z,38.80
2019-03-21T18:21:33.811Z,39.00
2019-03-21T18:24:04.027Z,39.20
2019-03-21T18:26:34.524Z,39.20
2019-03-21T18:29:05.579Z,39.60
2019-03-21T18:31:37.372Z,39.20
2019-03-21T18:34:07.740Z,39.00
2019-03-21T18:36:38.231Z,39.60
2019-03-21T18:39:10.948Z,38.60
2019-03-21T18:41:41.255Z,38.50
2019-03-21T18:44:11.469Z,38.40
2019-03-21T18:46:41.698Z,38.30
2019-03-21T18:49:11.923Z,38.30
2019-03-21T18:51:43.816Z,38.20
2019-03-21T18:54:15.614Z,38.30
2019-03-21T18:56:45.894Z,38.20
2019-03-21T18:59:16.103Z,38.10
2019-03-21T19:01:57.683Z,38.20
2019-03-21T19:04:18.294Z,38.20
2019-03-21T19:06:48.791Z,38.20
2019-03-21T19:09:20.641Z,38.30
2019-03-21T19:11:50.913Z,38.70
2019-03-21T19:14:21.174Z,38.90
2019-03-21T19:16:51.614Z,39.00
2019-03-21T19:19:23.439Z,39.00
2019-03-21T19:21:53.700Z,39.00
2019-03-21T19:24:24.008Z,39.00
2019-03-21T19:26:54.279Z,39.20
2019-03-21T19:29:24.497Z,39.20
2019-03-21T19:31:54.927Z,39.10
2019-03-21T19:34:25.092Z,39.20
2019-03-21T19:36:55.420Z,39.20
2019-03-21T19:39:25.718Z,39.50
2019-03-21T19:41:56.051Z,39.60
2019-03-21T19:44:26.339Z,39.80
2019-03-21T19:46:56.691Z,40.00
2019-03-21T19:49:26.928Z,40.50
2019-03-21T19:51:57.213Z,40.90
2019-03-21T19:54:29.091Z,40.70
2019-03-21T19:56:59.313Z,40.50
2019-03-21T19:59:29.573Z,40.40
2019-03-21T20:01:59.798Z,40.60
2019-03-21T20:04:30.000Z,41.00
2019-03-21T20:07:00.362Z,41.20
2019-03-21T20:09:32.136Z,41.30
2019-03-21T20:12:02.339Z,41.60
2019-03-21T20:14:32.528Z,41.80
2019-03-21T20:17:03.011Z,42.00
2019-03-21T20:19:33.204Z,42.00
2019-03-21T20:22:03.552Z,41.80
2019-03-21T20:24:35.364Z,41.70
2019-03-21T20:27:05.966Z,42.20
2019-03-21T20:29:36.297Z,42.40
2019-03-21T20:32:06.620Z,41.50
2019-03-21T20:34:37.655Z,41.80
2019-03-21T20:37:07.858Z,41.90
2019-03-21T20:39:38.152Z,42.10
2019-03-21T20:42:09.750Z,42.20
2019-03-21T20:44:40.315Z,42.20
2019-03-21T20:47:10.579Z,42.00
2019-03-21T20:49:42.515Z,41.90
2019-03-21T20:52:12.902Z,42.10
2019-03-21T20:54:44.762Z,42.40
2019-03-21T20:57:15.049Z,43.60
2019-03-21T20:59:45.372Z,43.30
2019-03-21T21:02:15.625Z,43.50
2019-03-21T21:04:45.907Z,43.40
2019-03-21T21:07:17.906Z,43.30
2019-03-21T21:09:48.454Z,42.90
2019-03-21T21:12:21.055Z,42.90
2019-03-21T21:14:51.236Z,43.90
2019-03-21T21:17:21.584Z,43.50
2019-03-21T21:19:51.983Z,44.00
2019-03-21T21:22:23.912Z,45.00
2019-03-21T21:24:55.717Z,44.30
2019-03-21T21:27:26.242Z,44.10
2019-03-21T21:29:56.556Z,43.60
2019-03-21T21:32:26.861Z,43.10
2019-03-21T21:34:57.120Z,42.80
2019-03-21T21:37:27.317Z,42.70
2019-03-21T21:39:59.126Z,42.40
2019-03-21T21:42:29.567Z,41.90
2019-03-21T21:44:59.776Z,41.60
2019-03-21T21:47:30.098Z,41.50
2019-03-21T21:50:00.344Z,41.30
2019-03-21T21:52:41.592Z,41.20
2019-03-21T21:55:02.615Z,41.00
2019-03-21T21:57:34.377Z,40.80
2019-03-21T22:00:07.664Z,40.70
2019-03-21T22:02:37.875Z,40.50
2019-03-21T22:05:08.128Z,40.20
2019-03-21T22:07:38.515Z,40.10
2019-03-21T22:10:11.391Z,39.90
2019-03-21T22:12:41.588Z,39.90
2019-03-21T22:15:13.602Z,40.40
2019-03-21T22:17:43.878Z,39.80
2019-03-21T22:20:15.928Z,39.60
2019-03-21T22:22:46.125Z,39.30
2019-03-21T22:25:16.433Z,39.30
2019-03-21T22:27:46.627Z,39.30
2019-03-21T22:30:19.944Z,39.70
2019-03-21T22:32:51.719Z,40.60
2019-03-21T22:35:23.548Z,40.10
2019-03-21T22:37:53.766Z,40.10
2019-03-21T22:40:24.092Z,39.80
2019-03-21T22:42:54.455Z,39.50
2019-03-21T22:45:24.664Z,39.50
2019-03-21T22:47:54.896Z,39.60
2019-03-21T22:50:25.155Z,40.30
2019-03-21T22:52:55.344Z,41.10
2019-03-21T22:55:25.577Z,41.30
2019-03-21T22:57:55.834Z,41.30
2019-03-21T23:00:39.865Z,40.90
2019-03-21T23:03:11.013Z,41.00
2019-03-21T23:05:41.233Z,41.00
2019-03-21T23:08:11.416Z,40.70
2019-03-21T23:10:41.764Z,40.50
2019-03-21T23:13:12.068Z,40.60
2019-03-21T23:15:42.267Z,40.40
2019-03-21T23:18:12.482Z,40.20
2019-03-21T23:20:42.694Z,40.00
2019-03-21T23:23:12.924Z,40.00
2019-03-21T23:25:43.913Z,39.90
2019-03-21T23:28:14.151Z,40.00
2019-03-21T23:30:44.365Z,39.90
2019-03-21T23:33:14.707Z,39.80
2019-03-21T23:35:45.024Z,40.00
2019-03-21T23:38:15.255Z,39.90
2019-03-21T23:40:45.449Z,40.00
2019-03-21T23:43:17.220Z,39.70
2019-03-21T23:45:47.431Z,39.70
2019-03-21T23:48:17.711Z,39.90
2019-03-21T23:50:47.920Z,40.10
2019-03-21T23:53:18.125Z,40.50
2019-03-21T23:55:48.324Z,41.00
2019-03-21T23:58:18.528Z,40.10
